Seattle, Washington
Traffic Map
Current Weather Conditions
Seattle, Washington
Overcast
Overcast
59°
Feels Like: 59°
Wind Chill: 59° Ceiling: 1600
Heat Index: 59° Visibility: 10mi
Dew Point: 50° Wind: 8mph
Humidity: 72% Direction: 210° (SSW)
Pressure: 29.99in Gusts: 0mph
Raw Report DataKBFI 221722Z 21007KT 10SM SCT008 OVC016 15/10 A2999 RMK AO2
Traffic Incident Summary
Active as of:
Severity:
Category:
InformationThere was an issue retrieving the traffic information for this location. Please try a different location or try again shortly.
Advertisements
Track Severe Weather on mobile